• Join FlightAware (Why Join?)
  • Login
  • US Flag 
01:47PM EDT


 

Airport Tracker/Info


-or-


 

Live Flight TrackerFlight Track Log ✈ N1926A ✈ 29-Jan-2014 ✈ KPWK - KMVN

Flight Track Log - Related Links

Times and Time Zones

All times are in EST time to prevent confusion due to time zone crossing. See the N1926A flight status page for this flight to view local times or setup timezone preferences in your user account.

Time Position Orientation Groundspeed Altitude Reporting Facility
EST Latitude Longitude Course Direction KTS MPH feet Rate Location/Type
08:50AM 42.1272 -87.8511 184° South 193 222 20,000  Level Chicago Center
08:52AM 42.1681 -87.8767 335° Northwest 169 194 20,000 -6,960 Level Chicago Center
08:53AM 42.2000 -87.9253 312° West 159 183 5,800 -6,780 Descending Chicago Center
08:54AM 42.1756 -87.9903 243° Southwest 197 227 6,000 60 Climbing Chicago Center
08:54AM 42.1000 -88.0000 185° South 248 285 6,000  Level Chicago TRACON
08:56AM 41.7114 -88.0086 184° South  Level Estimated
08:56AM 42.0333 -88.0000 180° South 260 299 6,000  Level Chicago TRACON
08:56AM 41.9667 -87.9833 169° South 265 305 6,000  Level Chicago TRACON
08:57AM 41.9000 -87.9833 180° South 262 302 6,000  Level Chicago TRACON
08:59AM 41.8167 -87.9667 172° South 264 304 6,000  Level Chicago TRACON
09:00AM 41.7333 -87.9667 180° South 263 303 6,000 540 Level Chicago TRACON
09:01AM 41.6583 -87.9819 189° South 244 281 7,200 840 Climbing Chicago Center
09:02AM 41.5967 -87.9931 188° South 242 278 8,000 720 Climbing Chicago Center
09:03AM 41.5225 -88.0103 190° South 248 285 8,700 780 Climbing Chicago Center
09:04AM 41.4553 -88.0203 186° South 244 281 9,700 1,080 Climbing Chicago Center
09:05AM 41.3883 -88.0208 180° South 239 275 11,000 1,080 Climbing Chicago Center
09:06AM 41.3172 -88.0294 185° South 255 293 12,000 1,260 Climbing Chicago Center
09:07AM 41.2500 -88.0417 188° South 247 284 13,600 1,380 Climbing Chicago Center
09:08AM 41.1822 -88.0586 191° South 247 284 14,900 1,320 Climbing Chicago Center
09:09AM 41.0986 -88.0786 190° South 253 291 16,400 1,380 Climbing Chicago Center
09:10AM 41.0261 -88.0975 191° South 259 298 17,800 1,080 Climbing Chicago Center
09:11AM 40.9556 -88.1228 195° South 263 303 18,700 960 Climbing Chicago Center
09:12AM 40.8778 -88.1511 195° South 281 323 19,800 600 Climbing Chicago Center
09:13AM 40.7981 -88.1811 196° South 293 337 20,000 60 Climbing Chicago Center
09:14AM 40.7094 -88.2083 193° South 321 369 20,000  Level Chicago Center
09:15AM 40.6214 -88.2314 191° South 322 371 20,000  Level Chicago Center
09:16AM 40.5342 -88.2544 191° South 320 368 20,000  Level Chicago Center
09:17AM 40.4303 -88.2856 193° South 319 367 20,000  Level Chicago Center
09:18AM 40.3425 -88.3078 191° South 320 368 20,000  Level Chicago Center
09:19AM 40.2567 -88.3272 190° South 314 361 20,000  Level Chicago Center
09:20AM 40.1711 -88.3489 191° South 311 358 20,000  Level Chicago Center
09:21AM 40.0869 -88.3694 191° South 308 354 20,000  Level Chicago Center
09:22AM 40.0031 -88.3917 191° South 306 352 20,000  Level Chicago Center
09:23AM 39.9192 -88.4144 192° South 306 352 20,000  Level Chicago Center
09:24AM 39.8378 -88.4386 193° South 301 346 20,000  Level Chicago Center
09:25AM 39.7419 -88.4683 193° South 296 341 20,000  Level Chicago Center
09:26AM 39.6606 -88.4919 193° South 297 342 20,000  Level Chicago Center
09:27AM 39.5775 -88.5169 193° South 302 348 20,000  Level Chicago Center
09:29AM 39.4956 -88.5375 191° South 301 346 20,000  Level Chicago Center
09:30AM 39.4147 -88.5578 191° South 297 342 20,000  Level Chicago Center
09:31AM 39.3333 -88.5789 191° South 298 343 20,000  Level Chicago Center
09:32AM 39.2525 -88.6008 192° South 297 342 20,000  Level Chicago Center
09:33AM 39.1731 -88.6225 192° South 294 338 20,000 -720 Level Chicago Center
09:34AM 39.0742 -88.6506 192° South 300 345 18,600 -1,260 Descending Chicago Center
09:35AM 38.9889 -88.6775 194° South 310 357 17,500 -1,320 Descending Chicago Center
09:36AM 38.8778 -88.7119 194° South 307 353 15,500 -1,680 Descending Kansas City Center
09:37AM 38.7989 -88.7350 193° South 298 343 13,400 -1,980 Descending Kansas City Center
09:38AM 38.7178 -88.7592 193° South 297 342 11,400 -2,160 Descending Kansas City Center
09:39AM 38.6403 -88.7767 190° South 291 335 9,100 -2,220 Descending Kansas City Center
09:40AM 38.5517 -88.7839 184° South 280 322 6,900 -2,040 Descending Kansas City Center
09:41AM 38.4872 -88.7847 181° South 247 284 5,000 -1,920 Descending Kansas City Center